Terminal Aerodrome Forecast
Issued by NWS Wilmington, OH

Home | Current Version | Previous Version | Text Only | Print | Product List | Glossary On
Versions: 1 2 3 4 5 6 7 8 9 10 11 12 13 14 15 16 17 18 19 20 21 22 23 24 25 26
000
FTUS41 KILN 191120
TAFCVG
TAF
KCVG 191120Z 1912/2018 20004KT P6SM VCSH BKN110
     FM191400 22006KT P6SM SCT090
     FM192000 27008KT P6SM SCT050
     FM200200 34004KT P6SM SKC
     FM201500 16004KT P6SM FEW045=

USA.gov is the U.S. government's official web portal to all federal, state and local government web resources and services.